createdAt,value
2023-02-24T00:02:52.759Z,23.30
2023-02-24T00:05:56.018Z,25.50
2023-02-24T00:08:59.223Z,26.10
2023-02-24T00:12:05.944Z,27.40
2023-02-24T00:15:09.511Z,28.00
2023-02-24T00:18:12.730Z,22.20
2023-02-24T00:21:17.221Z,29.10
2023-02-24T00:24:22.242Z,26.30
2023-02-24T00:27:25.495Z,24.70
2023-02-24T00:30:30.079Z,26.30
2023-02-24T00:33:34.471Z,26.50
2023-02-24T00:36:37.677Z,23.50
2023-02-24T00:39:41.846Z,27.70
2023-02-24T00:42:48.649Z,25.50
2023-02-24T00:45:52.207Z,28.70
2023-02-24T00:48:57.266Z,25.00
2023-02-24T00:52:00.490Z,24.60
2023-02-24T00:55:14.043Z,24.60
2023-02-24T00:58:19.674Z,23.40
2023-02-24T01:01:25.475Z,25.10
2023-02-24T01:04:29.428Z,24.90
2023-02-24T01:07:33.141Z,26.60
2023-02-24T01:10:36.366Z,26.60
2023-02-24T01:13:39.630Z,23.60
2023-02-24T01:16:50.676Z,24.20
2023-02-24T01:19:55.155Z,26.50
2023-02-24T01:22:58.846Z,27.80
2023-02-24T01:26:03.232Z,26.10
2023-02-24T01:29:09.802Z,25.70
2023-02-24T01:32:20.464Z,22.40
2023-02-24T01:35:25.757Z,24.80
2023-02-24T01:38:28.991Z,21.40
2023-02-24T01:41:32.515Z,24.40
2023-02-24T01:44:35.706Z,22.00
2023-02-24T01:47:39.332Z,22.90
2023-02-24T01:50:42.962Z,22.90
2023-02-24T01:53:46.681Z,22.00
2023-02-24T01:56:52.885Z,22.70
2023-02-24T02:00:02.265Z,25.10
2023-02-24T02:03:13.325Z,24.40
2023-02-24T02:06:17.911Z,22.70
2023-02-24T02:09:21.267Z,24.00
2023-02-24T02:12:29.100Z,23.50
2023-02-24T02:15:43.519Z,26.00
2023-02-24T02:19:12.808Z,22.20
2023-02-24T02:22:23.528Z,24.30
2023-02-24T02:25:44.901Z,24.10
2023-02-24T02:29:25.577Z,26.20
2023-02-24T02:32:53.156Z,24.10
2023-02-24T02:36:03.063Z,24.10
2023-02-24T02:39:35.228Z,23.70
2023-02-24T02:42:47.617Z,20.90
2023-02-24T02:49:30.491Z,20.40
2023-02-24T02:52:47.133Z,24.00
2023-02-24T02:56:08.402Z,22.60
2023-02-24T02:59:14.907Z,25.30
2023-02-24T03:02:21.536Z,28.70
2023-02-24T03:05:33.194Z,29.70
2023-02-24T03:08:40.379Z,28.30
2023-02-24T03:11:48.353Z,24.50
2023-02-24T03:15:02.083Z,25.10
2023-02-24T03:18:13.473Z,21.90
2023-02-24T03:21:39.205Z,20.50
2023-02-24T03:24:45.706Z,25.30
2023-02-24T03:28:08.482Z,21.20
2023-02-24T03:31:50.980Z,22.00
2023-02-24T03:35:04.364Z,24.60
2023-02-24T03:38:12.089Z,25.80
2023-02-24T03:41:17.223Z,24.10
2023-02-24T03:44:20.605Z,25.30
2023-02-24T03:47:25.746Z,26.70
2023-02-24T03:50:31.909Z,23.90
2023-02-24T03:54:03.449Z,27.10
2023-02-24T03:57:54.792Z,23.90
2023-02-24T04:01:31.043Z,22.00
2023-02-24T04:04:45.597Z,27.40
2023-02-24T04:08:09.965Z,24.00
2023-02-24T04:11:30.754Z,26.10
2023-02-24T04:14:47.607Z,24.60
2023-02-24T04:17:57.716Z,25.20
2023-02-24T04:21:05.577Z,26.10
2023-02-24T04:24:15.865Z,24.30
2023-02-24T04:27:21.189Z,25.00
2023-02-24T04:30:29.793Z,24.70
2023-02-24T04:33:33.613Z,27.00
2023-02-24T04:36:38.380Z,26.30
2023-02-24T04:39:41.859Z,26.10
2023-02-24T04:42:51.999Z,25.00
2023-02-24T04:45:56.150Z,23.00
2023-02-24T04:49:02.390Z,26.10
2023-02-24T04:52:05.884Z,24.20
2023-02-24T04:55:10.886Z,25.00
2023-02-24T04:58:19.476Z,24.00
2023-02-24T05:01:23.071Z,25.10
2023-02-24T05:04:26.651Z,25.60
2023-02-24T05:07:30.024Z,27.10
2023-02-24T05:10:39.881Z,26.30
2023-02-24T05:13:47.204Z,26.90
2023-02-24T05:16:51.112Z,26.70
2023-02-24T05:20:12.777Z,25.20
2023-02-24T05:23:17.015Z,27.00
2023-02-24T05:26:24.069Z,28.50
2023-02-24T05:29:30.640Z,28.90
2023-02-24T05:32:35.818Z,26.20
2023-02-24T05:35:39.608Z,27.90
2023-02-24T05:38:56.613Z,26.90
2023-02-24T05:42:06.272Z,27.10
2023-02-24T05:45:11.264Z,30.30
2023-02-24T05:48:17.188Z,28.40
2023-02-24T05:51:20.695Z,27.20
2023-02-24T05:54:30.917Z,31.60
2023-02-24T05:57:35.768Z,27.30
2023-02-24T06:00:39.966Z,30.00
2023-02-24T06:03:48.031Z,30.90
2023-02-24T06:06:52.596Z,32.00
2023-02-24T06:09:58.634Z,28.60
2023-02-24T06:13:02.581Z,29.80
2023-02-24T06:16:06.934Z,29.50
2023-02-24T06:19:12.293Z,33.00
2023-02-24T06:22:19.151Z,28.30
2023-02-24T06:25:25.084Z,30.70
2023-02-24T06:28:28.889Z,31.30
2023-02-24T06:31:32.181Z,28.40
2023-02-24T06:34:36.259Z,26.50
2023-02-24T06:37:39.651Z,33.20
2023-02-24T06:40:42.863Z,32.40
2023-02-24T06:43:48.313Z,33.30
2023-02-24T06:46:51.507Z,34.80
2023-02-24T06:49:54.745Z,28.70
2023-02-24T06:53:00.927Z,30.60
2023-02-24T06:56:07.130Z,28.20
2023-02-24T06:59:16.015Z,31.10
2023-02-24T07:02:19.182Z,31.60
2023-02-24T07:05:24.278Z,37.70
2023-02-24T07:08:27.484Z,31.40
2023-02-24T07:11:31.015Z,30.70
2023-02-24T07:14:37.046Z,30.10
2023-02-24T07:17:40.373Z,34.20
2023-02-24T07:20:46.200Z,31.70
2023-02-24T07:23:50.747Z,29.00
2023-02-24T07:27:23.353Z,32.10
2023-02-24T07:30:26.888Z,27.70
2023-02-24T07:33:30.085Z,29.70
2023-02-24T07:36:38.986Z,28.20
2023-02-24T07:39:43.214Z,40.60
2023-02-24T07:42:47.763Z,33.50
2023-02-24T07:45:52.894Z,32.10
2023-02-24T07:48:59.321Z,29.00
2023-02-24T07:52:02.723Z,32.00
2023-02-24T07:55:09.060Z,28.50
2023-02-24T07:58:12.406Z,33.50
2023-02-24T08:01:23.315Z,30.60
2023-02-24T08:04:29.346Z,30.80
2023-02-24T08:07:34.086Z,34.40
2023-02-24T08:10:37.382Z,32.60
2023-02-24T08:13:40.718Z,59.00
2023-02-24T08:16:45.927Z,36.20
2023-02-24T08:20:08.652Z,35.70
2023-02-24T08:23:14.333Z,32.60
2023-02-24T08:26:19.610Z,33.70
2023-02-24T08:29:23.023Z,33.20
2023-02-24T08:32:43.622Z,36.60
2023-02-24T08:35:52.180Z,37.50
2023-02-24T08:38:59.389Z,36.90
2023-02-24T08:42:03.136Z,37.70
2023-02-24T08:45:07.056Z,36.50
2023-02-24T08:48:18.672Z,34.80
2023-02-24T08:51:30.010Z,36.70
2023-02-24T08:54:33.845Z,36.80
2023-02-24T08:57:37.222Z,34.50
2023-02-24T09:00:49.355Z,33.70
2023-02-24T09:03:56.640Z,32.20
2023-02-24T09:07:11.254Z,35.70
2023-02-24T09:10:18.442Z,36.40
2023-02-24T09:13:21.767Z,38.00
2023-02-24T09:16:25.526Z,34.90
2023-02-24T09:19:46.615Z,44.90
2023-02-24T09:23:07.397Z,56.40
2023-02-24T09:26:11.254Z,42.70
2023-02-24T09:29:33.739Z,38.50
2023-02-24T09:35:42.853Z,46.90
2023-02-24T09:39:01.576Z,42.80
2023-02-24T09:42:12.663Z,42.70
2023-02-24T09:45:33.578Z,49.00
2023-02-24T09:48:46.292Z,52.40
2023-02-24T09:55:22.290Z,46.10
2023-02-24T09:58:43.702Z,44.20
2023-02-24T10:02:10.261Z,45.50
2023-02-24T10:05:27.808Z,50.20
2023-02-24T10:08:38.384Z,46.80
2023-02-24T10:11:54.094Z,42.60
2023-02-24T10:15:32.413Z,45.80
2023-02-24T10:19:15.137Z,48.20
2023-02-24T10:22:29.980Z,44.80
2023-02-24T10:25:54.022Z,49.40
2023-02-24T10:29:29.552Z,46.70
2023-02-24T10:32:47.281Z,48.40
2023-02-24T10:35:51.604Z,50.90
2023-02-24T10:38:56.392Z,48.20
2023-02-24T10:42:22.862Z,48.20
2023-02-24T10:45:34.772Z,45.50
2023-02-24T10:48:42.794Z,53.20
2023-02-24T10:51:53.293Z,47.20
2023-02-24T10:55:28.332Z,47.20
2023-02-24T10:58:38.314Z,48.50
2023-02-24T11:01:59.180Z,49.10
2023-02-24T11:05:27.418Z,49.50
2023-02-24T11:08:39.952Z,52.80
2023-02-24T11:15:36.557Z,44.40
2023-02-24T11:18:45.963Z,50.40
2023-02-24T11:21:49.476Z,50.00
2023-02-24T11:24:53.871Z,51.30
2023-02-24T11:27:57.964Z,49.20
2023-02-24T11:31:07.361Z,44.10
2023-02-24T11:34:30.160Z,46.20
2023-02-24T11:37:47.020Z,43.90
2023-02-24T11:41:02.922Z,45.10
2023-02-24T11:44:15.742Z,44.40
2023-02-24T11:47:24.236Z,44.90
2023-02-24T11:50:55.807Z,45.80
2023-02-24T11:54:03.319Z,48.20
2023-02-24T11:57:15.457Z,44.90
2023-02-24T12:00:23.698Z,43.50
2023-02-24T12:03:49.567Z,42.30
2023-02-24T12:07:09.316Z,46.20
2023-02-24T12:10:22.664Z,48.90
2023-02-24T12:13:48.796Z,44.60
2023-02-24T12:17:00.370Z,46.70
2023-02-24T12:20:30.596Z,47.10
2023-02-24T12:23:40.353Z,43.80
2023-02-24T12:27:02.736Z,40.00
2023-02-24T12:30:34.103Z,43.90
2023-02-24T12:33:42.926Z,45.80
2023-02-24T12:36:54.957Z,41.00
2023-02-24T12:40:01.314Z,44.50
2023-02-24T12:43:19.911Z,43.10
2023-02-24T12:46:33.646Z,40.80
2023-02-24T12:49:40.377Z,42.20
2023-02-24T12:52:49.433Z,49.20
2023-02-24T12:55:56.859Z,49.70
2023-02-24T12:59:05.574Z,47.40
2023-02-24T13:02:56.684Z,50.00
2023-02-24T13:06:20.937Z,48.40
2023-02-24T13:09:54.333Z,52.50
2023-02-24T13:13:18.829Z,54.60
2023-02-24T13:16:30.661Z,48.60
2023-02-24T13:19:34.081Z,49.70
2023-02-24T13:22:42.117Z,44.00
2023-02-24T13:25:52.447Z,44.40
2023-02-24T13:29:00.613Z,42.40
2023-02-24T13:32:04.769Z,45.40
2023-02-24T13:35:14.323Z,44.20
2023-02-24T13:38:25.434Z,46.90
2023-02-24T13:41:28.679Z,53.00
2023-02-24T13:44:32.799Z,48.60
2023-02-24T13:47:59.349Z,54.60
2023-02-24T13:51:35.227Z,50.00
2023-02-24T13:54:38.713Z,50.10
2023-02-24T13:57:45.082Z,51.80
2023-02-24T14:01:05.191Z,55.10
2023-02-24T14:04:27.308Z,53.20
2023-02-24T14:07:36.381Z,54.70
2023-02-24T14:10:46.033Z,53.10
2023-02-24T14:13:53.022Z,52.10
2023-02-24T14:16:56.443Z,49.90
2023-02-24T14:20:20.432Z,48.90
2023-02-24T14:23:30.090Z,50.80
2023-02-24T14:26:42.811Z,51.90
2023-02-24T14:29:46.118Z,49.30
2023-02-24T14:32:49.613Z,50.30
2023-02-24T14:35:53.258Z,52.10
2023-02-24T14:39:01.982Z,53.10
2023-02-24T14:42:13.297Z,27.80
2023-02-24T14:45:18.709Z,28.90
2023-02-24T14:48:29.977Z,27.60
2023-02-24T14:51:36.199Z,32.00
2023-02-24T14:54:48.593Z,54.80
2023-02-24T14:57:56.647Z,83.40
2023-02-24T15:01:15.269Z,102.80
2023-02-24T15:04:37.429Z,39.60
2023-02-24T15:07:45.287Z,58.10
2023-02-24T15:10:48.924Z,69.50
2023-02-24T15:14:08.452Z,51.90
2023-02-24T15:17:17.437Z,41.20
2023-02-24T15:20:40.854Z,36.20
2023-02-24T15:23:45.914Z,37.00
2023-02-24T15:26:54.874Z,33.80
2023-02-24T15:30:08.603Z,45.50
2023-02-24T15:33:21.812Z,36.50
2023-02-24T15:36:32.191Z,38.10
2023-02-24T15:39:37.125Z,33.40
2023-02-24T15:42:55.073Z,45.30
2023-02-24T15:45:58.440Z,56.10
2023-02-24T15:49:04.726Z,59.80
2023-02-24T15:52:10.582Z,56.20
2023-02-24T15:55:21.862Z,53.90
2023-02-24T15:58:25.711Z,54.20
2023-02-24T16:01:31.001Z,54.00
2023-02-24T16:04:34.373Z,52.30
2023-02-24T16:07:38.291Z,49.40
2023-02-24T16:11:10.317Z,47.10
2023-02-24T16:14:18.417Z,42.20
2023-02-24T16:17:27.212Z,42.30
2023-02-24T16:20:39.757Z,44.30
2023-02-24T16:23:43.235Z,45.00
2023-02-24T16:26:46.535Z,42.40
2023-02-24T16:29:49.733Z,42.10
2023-02-24T16:32:53.195Z,41.30
2023-02-24T16:35:56.787Z,35.90
2023-02-24T16:39:01.215Z,33.70
2023-02-24T16:42:07.397Z,28.20
2023-02-24T16:45:11.096Z,25.40
2023-02-24T16:48:24.504Z,26.50
2023-02-24T16:51:29.114Z,25.40
2023-02-24T16:54:32.317Z,23.30
2023-02-24T16:57:35.685Z,20.50
2023-02-24T17:00:40.816Z,25.20
2023-02-24T17:03:46.682Z,32.20
2023-02-24T17:06:49.958Z,32.00
2023-02-24T17:09:53.181Z,30.90
2023-02-24T17:12:56.402Z,38.20
2023-02-24T17:16:03.602Z,35.20
2023-02-24T17:19:06.983Z,29.00
2023-02-24T17:22:10.501Z,26.50
2023-02-24T17:25:20.211Z,25.90
2023-02-24T17:28:23.881Z,28.80
2023-02-24T17:31:31.901Z,24.80
2023-02-24T17:34:35.491Z,40.80
2023-02-24T17:37:39.841Z,36.10
2023-02-24T17:40:44.695Z,27.00
2023-02-24T17:43:50.866Z,31.20
2023-02-24T17:46:54.535Z,34.10
2023-02-24T17:49:58.025Z,36.80
2023-02-24T17:53:01.474Z,41.10
2023-02-24T17:56:06.023Z,42.20
2023-02-24T17:59:09.645Z,39.20
2023-02-24T18:02:17.604Z,39.00
2023-02-24T18:05:21.450Z,37.30
2023-02-24T18:08:24.804Z,42.40
2023-02-24T18:11:28.028Z,45.60
2023-02-24T18:14:31.397Z,39.70
2023-02-24T18:17:35.761Z,44.70
2023-02-24T18:20:43.615Z,45.90
2023-02-24T18:23:49.145Z,45.00
2023-02-24T18:26:52.397Z,43.60
2023-02-24T18:29:56.039Z,45.20
2023-02-24T18:32:59.644Z,63.90
2023-02-24T18:36:02.987Z,59.20
2023-02-24T18:39:06.262Z,68.30
2023-02-24T18:42:09.873Z,70.10
2023-02-24T18:45:13.125Z,64.50
2023-02-24T18:48:16.404Z,88.60
2023-02-24T18:51:22.459Z,102.30
2023-02-24T18:54:25.901Z,71.40
2023-02-24T18:57:29.343Z,58.20
2023-02-24T19:00:32.604Z,64.80
2023-02-24T19:03:35.789Z,53.50
2023-02-24T19:06:40.720Z,52.00
2023-02-24T19:09:46.885Z,54.80
2023-02-24T19:12:52.041Z,60.90
2023-02-24T19:15:55.315Z,61.20
2023-02-24T19:19:00.082Z,59.90
2023-02-24T19:22:03.277Z,57.60
2023-02-24T19:25:06.600Z,61.30
2023-02-24T19:28:09.814Z,57.80
2023-02-24T19:31:20.492Z,59.90
2023-02-24T19:34:23.946Z,66.80
2023-02-24T19:37:27.193Z,66.60
2023-02-24T19:40:30.476Z,65.40
2023-02-24T19:43:33.816Z,61.10
2023-02-24T19:46:38.158Z,65.30
2023-02-24T19:49:41.519Z,84.50
2023-02-24T19:52:44.821Z,63.90
2023-02-24T19:55:49.790Z,60.40
2023-02-24T19:58:54.685Z,51.40
2023-02-24T20:01:58.117Z,51.60
2023-02-24T20:05:01.372Z,45.20
2023-02-24T20:08:04.689Z,41.80
2023-02-24T20:11:07.872Z,40.60
2023-02-24T20:14:12.696Z,42.50
2023-02-24T20:17:17.510Z,43.20
2023-02-24T20:20:20.938Z,47.90
2023-02-24T20:23:24.329Z,52.90
2023-02-24T20:26:28.679Z,48.80
2023-02-24T20:29:33.709Z,53.60
2023-02-24T20:32:37.767Z,73.30
2023-02-24T20:35:41.307Z,85.20
2023-02-24T20:38:44.803Z,72.90
2023-02-24T20:41:50.498Z,69.90
2023-02-24T20:44:53.753Z,67.50
2023-02-24T20:47:57.004Z,61.30
2023-02-24T20:51:04.139Z,69.70
2023-02-24T20:54:09.675Z,59.90
2023-02-24T20:57:12.934Z,53.50
2023-02-24T21:00:17.083Z,53.30
2023-02-24T21:03:21.981Z,53.60
2023-02-24T21:06:26.061Z,53.90
2023-02-24T21:09:29.432Z,57.30
2023-02-24T21:12:34.374Z,60.80
2023-02-24T21:15:40.240Z,59.20
2023-02-24T21:18:45.548Z,60.90
2023-02-24T21:21:48.892Z,64.10
2023-02-24T21:24:52.260Z,67.00
2023-02-24T21:27:55.829Z,65.60
2023-02-24T21:30:59.298Z,75.20
2023-02-24T21:34:02.810Z,69.40
2023-02-24T21:37:06.243Z,69.40
2023-02-24T21:40:13.084Z,75.40
2023-02-24T21:43:17.838Z,89.80
2023-02-24T21:46:22.090Z,80.00
2023-02-24T21:49:26.566Z,84.70
2023-02-24T21:52:30.036Z,86.40
2023-02-24T21:55:34.151Z,91.60
2023-02-24T21:58:39.484Z,90.50
2023-02-24T22:01:45.249Z,83.20
2023-02-24T22:04:49.409Z,85.10
2023-02-24T22:07:53.123Z,87.90
2023-02-24T22:11:01.087Z,86.60
2023-02-24T22:14:08.393Z,54.20
2023-02-24T22:17:11.833Z,44.30
2023-02-24T22:20:15.192Z,42.20
2023-02-24T22:23:18.577Z,44.50
2023-02-24T22:26:25.801Z,43.90
2023-02-24T22:29:29.177Z,44.10
2023-02-24T22:32:32.589Z,46.90
2023-02-24T22:35:36.687Z,47.20
2023-02-24T22:38:40.770Z,49.30
2023-02-24T22:41:45.556Z,46.10
2023-02-24T22:44:48.879Z,47.20
2023-02-24T22:47:52.266Z,49.40
2023-02-24T22:50:57.869Z,44.30
2023-02-24T22:54:01.215Z,46.70
2023-02-24T22:57:04.547Z,43.00
2023-02-24T23:00:10.874Z,40.90
2023-02-24T23:03:16.385Z,43.80
2023-02-24T23:06:23.315Z,46.30
2023-02-24T23:09:28.116Z,49.80
2023-02-24T23:12:31.429Z,44.90
2023-02-24T23:15:39.040Z,50.40
2023-02-24T23:18:48.608Z,51.70
2023-02-24T23:21:53.618Z,54.00
2023-02-24T23:24:56.822Z,53.20
2023-02-24T23:28:00.297Z,47.90
2023-02-24T23:31:03.973Z,47.60
2023-02-24T23:34:07.696Z,37.70
2023-02-24T23:37:12.174Z,36.40
2023-02-24T23:40:15.741Z,33.40
2023-02-24T23:43:18.978Z,27.40
2023-02-24T23:46:22.663Z,28.10
2023-02-24T23:49:36.152Z,27.20
2023-02-24T23:52:45.826Z,23.30
2023-02-24T23:55:50.486Z,22.80
2023-02-24T23:58:57.001Z,23.00
